sensor_id;sensor_type;location;lat;lon;timestamp;P1;durP1;ratioP1;P2;durP2;ratioP2
6251;SDS011;3159;52.414;9.784;2022-08-01T00:00:20;3.70;;;2.47;;
6251;SDS011;3159;52.414;9.784;2022-08-01T00:02:47;3.10;;;2.43;;
6251;SDS011;3159;52.414;9.784;2022-08-01T00:05:14;3.30;;;3.00;;
6251;SDS011;3159;52.414;9.784;2022-08-01T00:07:41;5.03;;;2.87;;
6251;SDS011;3159;52.414;9.784;2022-08-01T00:10:09;4.07;;;2.30;;
6251;SDS011;3159;52.414;9.784;2022-08-01T00:12:37;2.47;;;2.27;;
6251;SDS011;3159;52.414;9.784;2022-08-01T00:15:04;4.70;;;2.60;;
6251;SDS011;3159;52.414;9.784;2022-08-01T00:17:34;2.93;;;2.63;;
6251;SDS011;3159;52.414;9.784;2022-08-01T00:20:02;3.43;;;2.80;;
6251;SDS011;3159;52.414;9.784;2022-08-01T00:22:30;4.50;;;2.33;;
6251;SDS011;3159;52.414;9.784;2022-08-01T00:24:57;2.60;;;2.40;;
6251;SDS011;3159;52.414;9.784;2022-08-01T00:27:24;3.47;;;2.80;;
6251;SDS011;3159;52.414;9.784;2022-08-01T00:29:51;3.63;;;2.53;;
6251;SDS011;3159;52.414;9.784;2022-08-01T00:32:18;4.23;;;2.40;;
6251;SDS011;3159;52.414;9.784;2022-08-01T00:34:46;3.20;;;2.87;;
6251;SDS011;3159;52.414;9.784;2022-08-01T00:37:13;2.77;;;2.17;;
6251;SDS011;3159;52.414;9.784;2022-08-01T00:39:40;3.73;;;2.47;;
6251;SDS011;3159;52.414;9.784;2022-08-01T00:42:07;3.30;;;2.60;;
6251;SDS011;3159;52.414;9.784;2022-08-01T00:44:35;2.33;;;2.13;;
6251;SDS011;3159;52.414;9.784;2022-08-01T00:47:02;3.60;;;2.40;;
6251;SDS011;3159;52.414;9.784;2022-08-01T00:49:29;2.97;;;2.00;;
6251;SDS011;3159;52.414;9.784;2022-08-01T00:51:58;2.67;;;2.00;;
6251;SDS011;3159;52.414;9.784;2022-08-01T00:54:26;2.90;;;2.30;;
6251;SDS011;3159;52.414;9.784;2022-08-01T00:56:53;3.03;;;2.37;;
6251;SDS011;3159;52.414;9.784;2022-08-01T00:59:21;2.90;;;2.40;;
6251;SDS011;3159;52.414;9.784;2022-08-01T01:01:48;5.43;;;2.60;;
6251;SDS011;3159;52.414;9.784;2022-08-01T01:04:15;2.73;;;2.43;;
6251;SDS011;3159;52.414;9.784;2022-08-01T01:06:44;3.17;;;2.67;;
6251;SDS011;3159;52.414;9.784;2022-08-01T01:09:24;3.37;;;3.00;;
6251;SDS011;3159;52.414;9.784;2022-08-01T01:12:01;2.90;;;2.60;;
6251;SDS011;3159;52.414;9.784;2022-08-01T01:14:37;5.17;;;2.57;;
6251;SDS011;3159;52.414;9.784;2022-08-01T01:17:12;4.57;;;3.07;;
6251;SDS011;3159;52.414;9.784;2022-08-01T01:19:44;4.40;;;2.90;;
6251;SDS011;3159;52.414;9.784;2022-08-01T01:22:18;2.97;;;2.67;;
6251;SDS011;3159;52.414;9.784;2022-08-01T01:24:58;3.63;;;3.00;;
6251;SDS011;3159;52.414;9.784;2022-08-01T01:27:35;3.13;;;2.83;;
6251;SDS011;3159;52.414;9.784;2022-08-01T01:30:09;4.20;;;3.00;;
6251;SDS011;3159;52.414;9.784;2022-08-01T01:32:38;3.30;;;2.80;;
6251;SDS011;3159;52.414;9.784;2022-08-01T01:35:09;4.03;;;3.00;;
6251;SDS011;3159;52.414;9.784;2022-08-01T01:37:40;2.30;;;2.10;;
6251;SDS011;3159;52.414;9.784;2022-08-01T01:40:09;2.83;;;2.23;;
6251;SDS011;3159;52.414;9.784;2022-08-01T01:42:37;2.63;;;2.03;;
6251;SDS011;3159;52.414;9.784;2022-08-01T01:45:06;2.10;;;1.90;;
6251;SDS011;3159;52.414;9.784;2022-08-01T01:47:35;2.83;;;1.97;;
6251;SDS011;3159;52.414;9.784;2022-08-01T01:50:04;3.23;;;1.60;;
6251;SDS011;3159;52.414;9.784;2022-08-01T01:52:34;1.70;;;1.60;;
6251;SDS011;3159;52.414;9.784;2022-08-01T01:55:04;1.60;;;1.50;;
6251;SDS011;3159;52.414;9.784;2022-08-01T01:57:34;1.60;;;1.10;;
6251;SDS011;3159;52.414;9.784;2022-08-01T02:00:04;3.57;;;1.50;;
6251;SDS011;3159;52.414;9.784;2022-08-01T02:02:32;1.40;;;1.30;;
6251;SDS011;3159;52.414;9.784;2022-08-01T02:05:01;1.43;;;1.33;;
6251;SDS011;3159;52.414;9.784;2022-08-01T02:07:28;1.23;;;1.13;;
6251;SDS011;3159;52.414;9.784;2022-08-01T02:09:56;1.37;;;1.27;;
6251;SDS011;3159;52.414;9.784;2022-08-01T02:12:26;1.63;;;1.20;;
6251;SDS011;3159;52.414;9.784;2022-08-01T02:14:54;1.27;;;1.10;;
6251;SDS011;3159;52.414;9.784;2022-08-01T02:17:23;2.83;;;1.10;;
6251;SDS011;3159;52.414;9.784;2022-08-01T02:19:51;1.20;;;1.10;;
6251;SDS011;3159;52.414;9.784;2022-08-01T02:22:22;1.27;;;0.93;;
6251;SDS011;3159;52.414;9.784;2022-08-01T02:24:56;0.70;;;0.70;;
6251;SDS011;3159;52.414;9.784;2022-08-01T02:27:28;0.50;;;0.50;;
6251;SDS011;3159;52.414;9.784;2022-08-01T02:30:00;1.13;;;0.90;;
6251;SDS011;3159;52.414;9.784;2022-08-01T02:32:30;0.70;;;0.70;;
6251;SDS011;3159;52.414;9.784;2022-08-01T02:34:59;0.67;;;0.67;;
6251;SDS011;3159;52.414;9.784;2022-08-01T02:37:30;0.70;;;0.70;;
6251;SDS011;3159;52.414;9.784;2022-08-01T02:40:00;0.90;;;0.87;;
6251;SDS011;3159;52.414;9.784;2022-08-01T02:42:28;0.60;;;0.60;;
6251;SDS011;3159;52.414;9.784;2022-08-01T02:44:56;1.30;;;0.70;;
6251;SDS011;3159;52.414;9.784;2022-08-01T02:47:25;0.90;;;0.90;;
6251;SDS011;3159;52.414;9.784;2022-08-01T02:49:54;2.43;;;0.90;;
6251;SDS011;3159;52.414;9.784;2022-08-01T02:52:21;0.87;;;0.87;;
6251;SDS011;3159;52.414;9.784;2022-08-01T02:54:53;1.20;;;1.10;;
6251;SDS011;3159;52.414;9.784;2022-08-01T02:57:22;1.23;;;1.13;;
6251;SDS011;3159;52.414;9.784;2022-08-01T02:59:50;0.80;;;0.80;;
6251;SDS011;3159;52.414;9.784;2022-08-01T03:02:20;1.53;;;1.43;;
6251;SDS011;3159;52.414;9.784;2022-08-01T03:04:48;1.40;;;1.30;;
6251;SDS011;3159;52.414;9.784;2022-08-01T03:07:17;1.70;;;1.60;;
6251;SDS011;3159;52.414;9.784;2022-08-01T03:09:46;1.80;;;1.70;;
6251;SDS011;3159;52.414;9.784;2022-08-01T03:12:17;2.03;;;1.70;;
6251;SDS011;3159;52.414;9.784;2022-08-01T03:14:46;1.43;;;1.33;;
6251;SDS011;3159;52.414;9.784;2022-08-01T03:17:15;2.10;;;1.70;;
6251;SDS011;3159;52.414;9.784;2022-08-01T03:19:44;1.67;;;1.57;;
6251;SDS011;3159;52.414;9.784;2022-08-01T03:22:12;1.93;;;1.80;;
6251;SDS011;3159;52.414;9.784;2022-08-01T03:24:41;1.57;;;1.47;;
6251;SDS011;3159;52.414;9.784;2022-08-01T03:27:08;1.63;;;1.53;;
6251;SDS011;3159;52.414;9.784;2022-08-01T03:29:39;1.30;;;1.23;;
6251;SDS011;3159;52.414;9.784;2022-08-01T03:32:07;1.50;;;1.40;;
6251;SDS011;3159;52.414;9.784;2022-08-01T03:34:37;1.47;;;1.33;;
6251;SDS011;3159;52.414;9.784;2022-08-01T03:37:05;2.30;;;0.97;;
6251;SDS011;3159;52.414;9.784;2022-08-01T03:39:37;1.07;;;0.63;;
6251;SDS011;3159;52.414;9.784;2022-08-01T03:42:10;0.60;;;0.60;;
6251;SDS011;3159;52.414;9.784;2022-08-01T03:44:43;0.43;;;0.43;;
6251;SDS011;3159;52.414;9.784;2022-08-01T03:47:19;0.60;;;0.60;;
6251;SDS011;3159;52.414;9.784;2022-08-01T03:49:50;1.53;;;0.70;;
6251;SDS011;3159;52.414;9.784;2022-08-01T03:52:18;0.63;;;0.63;;
6251;SDS011;3159;52.414;9.784;2022-08-01T03:54:46;0.87;;;0.63;;
6251;SDS011;3159;52.414;9.784;2022-08-01T03:57:16;0.77;;;0.50;;
6251;SDS011;3159;52.414;9.784;2022-08-01T03:59:45;0.70;;;0.70;;
6251;SDS011;3159;52.414;9.784;2022-08-01T04:02:13;0.80;;;0.80;;
6251;SDS011;3159;52.414;9.784;2022-08-01T04:04:40;1.00;;;0.90;;
6251;SDS011;3159;52.414;9.784;2022-08-01T04:07:20;1.37;;;1.00;;
6251;SDS011;3159;52.414;9.784;2022-08-01T04:09:48;1.53;;;1.10;;
6251;SDS011;3159;52.414;9.784;2022-08-01T04:12:15;1.07;;;1.00;;
6251;SDS011;3159;52.414;9.784;2022-08-01T04:14:42;0.93;;;0.93;;
6251;SDS011;3159;52.414;9.784;2022-08-01T04:17:10;1.43;;;1.20;;
6251;SDS011;3159;52.414;9.784;2022-08-01T04:19:37;0.90;;;0.90;;
6251;SDS011;3159;52.414;9.784;2022-08-01T04:22:04;1.40;;;1.10;;
6251;SDS011;3159;52.414;9.784;2022-08-01T04:24:32;1.73;;;1.30;;
6251;SDS011;3159;52.414;9.784;2022-08-01T04:27:03;1.60;;;1.50;;
6251;SDS011;3159;52.414;9.784;2022-08-01T04:29:34;1.53;;;1.30;;
6251;SDS011;3159;52.414;9.784;2022-08-01T04:32:03;1.60;;;1.50;;
6251;SDS011;3159;52.414;9.784;2022-08-01T04:34:33;1.40;;;1.30;;
6251;SDS011;3159;52.414;9.784;2022-08-01T04:37:05;1.57;;;1.47;;
6251;SDS011;3159;52.414;9.784;2022-08-01T04:39:35;1.47;;;1.30;;
6251;SDS011;3159;52.414;9.784;2022-08-01T04:42:05;1.47;;;1.23;;
6251;SDS011;3159;52.414;9.784;2022-08-01T04:44:33;4.40;;;1.10;;
6251;SDS011;3159;52.414;9.784;2022-08-01T04:47:01;1.87;;;1.40;;
6251;SDS011;3159;52.414;9.784;2022-08-01T04:49:30;1.20;;;1.10;;
6251;SDS011;3159;52.414;9.784;2022-08-01T04:51:59;1.60;;;1.50;;
6251;SDS011;3159;52.414;9.784;2022-08-01T04:54:26;1.60;;;1.40;;
6251;SDS011;3159;52.414;9.784;2022-08-01T04:56:54;1.90;;;1.73;;
6251;SDS011;3159;52.414;9.784;2022-08-01T04:59:24;2.60;;;2.37;;
6251;SDS011;3159;52.414;9.784;2022-08-01T05:02:06;3.20;;;2.07;;
6251;SDS011;3159;52.414;9.784;2022-08-01T05:04:35;2.33;;;2.20;;
6251;SDS011;3159;52.414;9.784;2022-08-01T05:07:04;2.20;;;2.00;;
6251;SDS011;3159;52.414;9.784;2022-08-01T05:09:31;3.42;;;3.13;;
6251;SDS011;3159;52.414;9.784;2022-08-01T05:11:58;2.53;;;2.33;;
6251;SDS011;3159;52.414;9.784;2022-08-01T05:14:27;2.47;;;2.27;;
6251;SDS011;3159;52.414;9.784;2022-08-01T05:16:57;2.43;;;2.23;;
6251;SDS011;3159;52.414;9.784;2022-08-01T05:19:24;2.40;;;2.20;;
6251;SDS011;3159;52.414;9.784;2022-08-01T05:21:51;2.47;;;2.10;;
6251;SDS011;3159;52.414;9.784;2022-08-01T05:24:19;3.00;;;2.70;;
6251;SDS011;3159;52.414;9.784;2022-08-01T05:26:47;2.43;;;2.23;;
6251;SDS011;3159;52.414;9.784;2022-08-01T05:29:14;2.33;;;2.10;;
6251;SDS011;3159;52.414;9.784;2022-08-01T05:31:41;2.30;;;2.10;;
6251;SDS011;3159;52.414;9.784;2022-08-01T05:34:08;2.00;;;1.90;;
6251;SDS011;3159;52.414;9.784;2022-08-01T05:36:35;3.03;;;1.97;;
6251;SDS011;3159;52.414;9.784;2022-08-01T05:39:02;1.90;;;1.80;;
6251;SDS011;3159;52.414;9.784;2022-08-01T05:41:31;2.80;;;1.70;;
6251;SDS011;3159;52.414;9.784;2022-08-01T05:43:58;2.90;;;1.77;;
6251;SDS011;3159;52.414;9.784;2022-08-01T05:46:25;2.67;;;1.83;;
6251;SDS011;3159;52.414;9.784;2022-08-01T05:48:51;2.00;;;1.80;;
6251;SDS011;3159;52.414;9.784;2022-08-01T05:51:18;1.80;;;1.70;;
6251;SDS011;3159;52.414;9.784;2022-08-01T05:53:45;1.73;;;1.47;;
6251;SDS011;3159;52.414;9.784;2022-08-01T05:56:12;1.70;;;1.60;;
6251;SDS011;3159;52.414;9.784;2022-08-01T05:58:40;1.50;;;1.40;;
6251;SDS011;3159;52.414;9.784;2022-08-01T06:01:07;2.00;;;1.80;;
6251;SDS011;3159;52.414;9.784;2022-08-01T06:03:34;1.60;;;1.50;;
6251;SDS011;3159;52.414;9.784;2022-08-01T06:06:01;1.50;;;1.40;;
6251;SDS011;3159;52.414;9.784;2022-08-01T06:08:28;1.53;;;1.43;;
6251;SDS011;3159;52.414;9.784;2022-08-01T06:10:56;2.13;;;2.00;;
6251;SDS011;3159;52.414;9.784;2022-08-01T06:13:23;5.23;;;3.10;;
6251;SDS011;3159;52.414;9.784;2022-08-01T06:15:51;3.50;;;3.20;;
6251;SDS011;3159;52.414;9.784;2022-08-01T06:18:18;3.63;;;3.33;;
6251;SDS011;3159;52.414;9.784;2022-08-01T06:20:46;4.03;;;3.00;;
6251;SDS011;3159;52.414;9.784;2022-08-01T06:23:13;2.93;;;2.73;;
6251;SDS011;3159;52.414;9.784;2022-08-01T06:25:41;1.70;;;1.60;;
6251;SDS011;3159;52.414;9.784;2022-08-01T06:28:08;1.60;;;1.50;;
6251;SDS011;3159;52.414;9.784;2022-08-01T06:30:35;1.70;;;1.50;;
6251;SDS011;3159;52.414;9.784;2022-08-01T06:33:03;1.87;;;1.33;;
6251;SDS011;3159;52.414;9.784;2022-08-01T06:35:32;2.07;;;1.20;;
6251;SDS011;3159;52.414;9.784;2022-08-01T06:37:59;1.40;;;1.30;;
6251;SDS011;3159;52.414;9.784;2022-08-01T06:40:26;1.40;;;1.30;;
6251;SDS011;3159;52.414;9.784;2022-08-01T06:42:53;1.67;;;1.40;;
6251;SDS011;3159;52.414;9.784;2022-08-01T06:45:20;1.67;;;1.50;;
6251;SDS011;3159;52.414;9.784;2022-08-01T06:47:49;1.97;;;1.30;;
6251;SDS011;3159;52.414;9.784;2022-08-01T06:50:18;1.93;;;1.43;;
6251;SDS011;3159;52.414;9.784;2022-08-01T06:52:45;1.40;;;1.30;;
6251;SDS011;3159;52.414;9.784;2022-08-01T06:55:12;1.70;;;1.60;;
6251;SDS011;3159;52.414;9.784;2022-08-01T06:57:44;1.27;;;1.17;;
6251;SDS011;3159;52.414;9.784;2022-08-01T07:00:13;2.20;;;2.00;;
6251;SDS011;3159;52.414;9.784;2022-08-01T07:02:41;1.90;;;1.63;;
6251;SDS011;3159;52.414;9.784;2022-08-01T07:05:08;1.80;;;1.67;;
6251;SDS011;3159;52.414;9.784;2022-08-01T07:07:37;1.90;;;1.80;;
6251;SDS011;3159;52.414;9.784;2022-08-01T07:10:04;1.90;;;1.80;;
6251;SDS011;3159;52.414;9.784;2022-08-01T07:12:33;2.17;;;1.97;;
6251;SDS011;3159;52.414;9.784;2022-08-01T07:15:01;1.90;;;1.80;;
6251;SDS011;3159;52.414;9.784;2022-08-01T07:17:29;2.00;;;1.90;;
6251;SDS011;3159;52.414;9.784;2022-08-01T07:19:56;2.00;;;1.90;;
6251;SDS011;3159;52.414;9.784;2022-08-01T07:22:25;2.57;;;1.90;;
6251;SDS011;3159;52.414;9.784;2022-08-01T07:24:53;2.40;;;2.23;;
6251;SDS011;3159;52.414;9.784;2022-08-01T07:27:20;2.83;;;2.63;;
6251;SDS011;3159;52.414;9.784;2022-08-01T07:29:47;2.13;;;2.00;;
6251;SDS011;3159;52.414;9.784;2022-08-01T07:32:14;1.70;;;1.60;;
6251;SDS011;3159;52.414;9.784;2022-08-01T07:34:41;2.13;;;1.70;;
6251;SDS011;3159;52.414;9.784;2022-08-01T07:37:08;1.97;;;1.87;;
6251;SDS011;3159;52.414;9.784;2022-08-01T07:39:34;1.57;;;1.47;;
6251;SDS011;3159;52.414;9.784;2022-08-01T07:42:03;1.60;;;1.50;;
6251;SDS011;3159;52.414;9.784;2022-08-01T07:44:30;1.90;;;1.80;;
6251;SDS011;3159;52.414;9.784;2022-08-01T07:46:57;1.77;;;1.63;;
6251;SDS011;3159;52.414;9.784;2022-08-01T07:49:23;2.03;;;1.47;;
6251;SDS011;3159;52.414;9.784;2022-08-01T07:51:50;1.70;;;1.60;;
6251;SDS011;3159;52.414;9.784;2022-08-01T07:54:17;1.77;;;1.33;;
6251;SDS011;3159;52.414;9.784;2022-08-01T07:56:44;1.30;;;1.20;;
6251;SDS011;3159;52.414;9.784;2022-08-01T07:59:12;1.60;;;1.50;;
6251;SDS011;3159;52.414;9.784;2022-08-01T08:01:39;1.57;;;1.47;;
6251;SDS011;3159;52.414;9.784;2022-08-01T08:04:06;1.80;;;1.30;;
6251;SDS011;3159;52.414;9.784;2022-08-01T08:06:33;1.43;;;1.33;;
6251;SDS011;3159;52.414;9.784;2022-08-01T08:09:00;1.40;;;1.30;;
6251;SDS011;3159;52.414;9.784;2022-08-01T08:11:27;1.30;;;1.20;;
6251;SDS011;3159;52.414;9.784;2022-08-01T08:13:54;1.10;;;1.10;;
6251;SDS011;3159;52.414;9.784;2022-08-01T08:16:22;1.53;;;1.43;;
6251;SDS011;3159;52.414;9.784;2022-08-01T08:18:49;2.20;;;1.90;;
6251;SDS011;3159;52.414;9.784;2022-08-01T08:21:15;1.67;;;1.57;;
6251;SDS011;3159;52.414;9.784;2022-08-01T08:23:42;2.23;;;2.13;;
6251;SDS011;3159;52.414;9.784;2022-08-01T08:26:27;2.20;;;2.10;;
6251;SDS011;3159;52.414;9.784;2022-08-01T08:28:54;2.40;;;1.93;;
6251;SDS011;3159;52.414;9.784;2022-08-01T08:31:22;2.23;;;2.13;;
6251;SDS011;3159;52.414;9.784;2022-08-01T08:33:49;2.53;;;1.93;;
6251;SDS011;3159;52.414;9.784;2022-08-01T08:36:15;3.20;;;2.40;;
6251;SDS011;3159;52.414;9.784;2022-08-01T08:38:42;2.23;;;2.13;;
6251;SDS011;3159;52.414;9.784;2022-08-01T08:41:11;2.40;;;2.30;;
6251;SDS011;3159;52.414;9.784;2022-08-01T08:43:38;2.97;;;2.60;;
6251;SDS011;3159;52.414;9.784;2022-08-01T08:46:05;2.83;;;2.63;;
6251;SDS011;3159;52.414;9.784;2022-08-01T08:48:35;3.30;;;3.00;;
6251;SDS011;3159;52.414;9.784;2022-08-01T08:51:03;3.60;;;3.30;;
6251;SDS011;3159;52.414;9.784;2022-08-01T08:53:30;3.60;;;3.27;;
6251;SDS011;3159;52.414;9.784;2022-08-01T08:55:59;3.60;;;3.30;;
6251;SDS011;3159;52.414;9.784;2022-08-01T08:58:27;3.40;;;3.20;;
6251;SDS011;3159;52.414;9.784;2022-08-01T09:00:54;3.50;;;3.20;;
6251;SDS011;3159;52.414;9.784;2022-08-01T09:03:21;3.07;;;2.77;;
6251;SDS011;3159;52.414;9.784;2022-08-01T09:05:50;3.03;;;2.83;;
6251;SDS011;3159;52.414;9.784;2022-08-01T09:08:17;3.00;;;2.50;;
6251;SDS011;3159;52.414;9.784;2022-08-01T09:10:43;2.30;;;2.20;;
6251;SDS011;3159;52.414;9.784;2022-08-01T09:13:11;2.60;;;2.40;;
6251;SDS011;3159;52.414;9.784;2022-08-01T09:15:43;2.60;;;2.40;;
6251;SDS011;3159;52.414;9.784;2022-08-01T09:18:28;2.33;;;2.13;;
6251;SDS011;3159;52.414;9.784;2022-08-01T09:21:09;2.00;;;1.90;;
6251;SDS011;3159;52.414;9.784;2022-08-01T09:23:39;2.37;;;1.90;;
6251;SDS011;3159;52.414;9.784;2022-08-01T09:26:08;2.30;;;1.80;;
6251;SDS011;3159;52.414;9.784;2022-08-01T09:28:36;1.90;;;1.80;;
6251;SDS011;3159;52.414;9.784;2022-08-01T09:31:08;2.00;;;1.87;;
6251;SDS011;3159;52.414;9.784;2022-08-01T09:33:52;3.00;;;2.27;;
6251;SDS011;3159;52.414;9.784;2022-08-01T09:36:23;2.17;;;1.97;;
6251;SDS011;3159;52.414;9.784;2022-08-01T09:38:51;2.50;;;2.10;;
6251;SDS011;3159;52.414;9.784;2022-08-01T09:41:28;2.97;;;2.67;;
6251;SDS011;3159;52.414;9.784;2022-08-01T09:43:56;3.20;;;2.40;;
6251;SDS011;3159;52.414;9.784;2022-08-01T09:46:24;3.20;;;2.90;;
6251;SDS011;3159;52.414;9.784;2022-08-01T09:48:55;6.00;;;3.00;;
6251;SDS011;3159;52.414;9.784;2022-08-01T09:51:32;3.17;;;2.60;;
6251;SDS011;3159;52.414;9.784;2022-08-01T09:54:00;3.00;;;2.70;;
6251;SDS011;3159;52.414;9.784;2022-08-01T09:56:35;2.30;;;2.10;;
6251;SDS011;3159;52.414;9.784;2022-08-01T09:59:03;1.87;;;1.73;;
6251;SDS011;3159;52.414;9.784;2022-08-01T10:01:41;1.47;;;1.37;;
6251;SDS011;3159;52.414;9.784;2022-08-01T10:04:11;1.97;;;1.20;;
6251;SDS011;3159;52.414;9.784;2022-08-01T10:06:42;1.97;;;1.30;;
6251;SDS011;3159;52.414;9.784;2022-08-01T10:09:29;1.63;;;1.50;;
6251;SDS011;3159;52.414;9.784;2022-08-01T10:11:58;1.53;;;1.43;;
6251;SDS011;3159;52.414;9.784;2022-08-01T10:14:26;1.80;;;1.30;;
6251;SDS011;3159;52.414;9.784;2022-08-01T10:16:55;1.83;;;1.40;;
6251;SDS011;3159;52.414;9.784;2022-08-01T10:19:24;2.53;;;1.77;;
6251;SDS011;3159;52.414;9.784;2022-08-01T10:21:54;2.20;;;1.53;;
6251;SDS011;3159;52.414;9.784;2022-08-01T10:24:22;2.03;;;1.60;;
6251;SDS011;3159;52.414;9.784;2022-08-01T10:26:51;2.00;;;1.70;;
6251;SDS011;3159;52.414;9.784;2022-08-01T10:29:25;1.43;;;1.33;;
6251;SDS011;3159;52.414;9.784;2022-08-01T10:31:53;1.90;;;1.33;;
6251;SDS011;3159;52.414;9.784;2022-08-01T10:34:20;2.17;;;1.23;;
6251;SDS011;3159;52.414;9.784;2022-08-01T10:36:47;3.07;;;1.20;;
6251;SDS011;3159;52.414;9.784;2022-08-01T10:39:16;3.80;;;1.20;;
6251;SDS011;3159;52.414;9.784;2022-08-01T10:41:44;2.77;;;1.30;;
6251;SDS011;3159;52.414;9.784;2022-08-01T10:44:12;1.50;;;0.90;;
6251;SDS011;3159;52.414;9.784;2022-08-01T10:46:42;1.60;;;1.20;;
6251;SDS011;3159;52.414;9.784;2022-08-01T10:49:13;5.13;;;1.30;;
6251;SDS011;3159;52.414;9.784;2022-08-01T10:51:42;2.50;;;1.37;;
6251;SDS011;3159;52.414;9.784;2022-08-01T10:54:10;1.83;;;1.07;;
6251;SDS011;3159;52.414;9.784;2022-08-01T10:56:40;2.10;;;1.30;;
6251;SDS011;3159;52.414;9.784;2022-08-01T10:59:10;3.53;;;1.23;;
6251;SDS011;3159;52.414;9.784;2022-08-01T11:01:41;3.00;;;1.03;;
6251;SDS011;3159;52.414;9.784;2022-08-01T11:04:08;1.27;;;0.90;;
6251;SDS011;3159;52.414;9.784;2022-08-01T11:06:42;1.27;;;0.97;;
6251;SDS011;3159;52.414;9.784;2022-08-01T11:09:24;3.70;;;1.20;;
6251;SDS011;3159;52.414;9.784;2022-08-01T11:12:03;3.17;;;1.30;;
6251;SDS011;3159;52.414;9.784;2022-08-01T11:14:33;3.37;;;1.20;;
6251;SDS011;3159;52.414;9.784;2022-08-01T11:17:30;2.93;;;1.13;;
6251;SDS011;3159;52.414;9.784;2022-08-01T11:20:08;3.10;;;1.30;;
6251;SDS011;3159;52.414;9.784;2022-08-01T11:26:08;3.23;;;1.17;;
6251;SDS011;3159;52.414;9.784;2022-08-01T11:28:37;2.00;;;0.93;;
6251;SDS011;3159;52.414;9.784;2022-08-01T11:31:25;3.13;;;1.00;;
6251;SDS011;3159;52.414;9.784;2022-08-01T11:33:55;2.50;;;0.80;;
6251;SDS011;3159;52.414;9.784;2022-08-01T11:36:23;3.03;;;1.07;;
6251;SDS011;3159;52.414;9.784;2022-08-01T11:41:41;3.63;;;1.20;;
6251;SDS011;3159;52.414;9.784;2022-08-01T11:44:10;2.33;;;1.07;;
6251;SDS011;3159;52.414;9.784;2022-08-01T11:46:45;2.63;;;1.13;;
6251;SDS011;3159;52.414;9.784;2022-08-01T11:49:35;3.00;;;1.60;;
6251;SDS011;3159;52.414;9.784;2022-08-01T11:52:11;2.77;;;1.00;;
6251;SDS011;3159;52.414;9.784;2022-08-01T11:54:40;2.20;;;1.50;;
6251;SDS011;3159;52.414;9.784;2022-08-01T11:57:09;2.73;;;1.17;;
6251;SDS011;3159;52.414;9.784;2022-08-01T11:59:40;1.90;;;1.80;;
6251;SDS011;3159;52.414;9.784;2022-08-01T12:02:21;4.17;;;1.10;;
6251;SDS011;3159;52.414;9.784;2022-08-01T12:04:51;4.10;;;1.40;;
6251;SDS011;3159;52.414;9.784;2022-08-01T12:07:20;1.73;;;1.03;;
6251;SDS011;3159;52.414;9.784;2022-08-01T12:09:56;2.17;;;1.10;;
6251;SDS011;3159;52.414;9.784;2022-08-01T12:12:25;3.00;;;1.20;;
6251;SDS011;3159;52.414;9.784;2022-08-01T12:14:54;3.43;;;1.20;;
6251;SDS011;3159;52.414;9.784;2022-08-01T12:17:32;2.47;;;1.30;;
6251;SDS011;3159;52.414;9.784;2022-08-01T12:20:00;2.37;;;1.00;;
6251;SDS011;3159;52.414;9.784;2022-08-01T12:22:29;2.27;;;1.20;;
6251;SDS011;3159;52.414;9.784;2022-08-01T12:24:56;2.77;;;1.40;;
6251;SDS011;3159;52.414;9.784;2022-08-01T12:27:32;2.30;;;1.50;;
6251;SDS011;3159;52.414;9.784;2022-08-01T12:30:01;3.53;;;1.20;;
6251;SDS011;3159;52.414;9.784;2022-08-01T12:32:31;2.60;;;0.90;;
6251;SDS011;3159;52.414;9.784;2022-08-01T12:35:01;2.83;;;0.90;;
6251;SDS011;3159;52.414;9.784;2022-08-01T12:37:29;3.20;;;1.23;;
6251;SDS011;3159;52.414;9.784;2022-08-01T12:39:56;2.77;;;1.10;;
6251;SDS011;3159;52.414;9.784;2022-08-01T12:42:24;1.00;;;0.77;;
6251;SDS011;3159;52.414;9.784;2022-08-01T12:44:51;2.07;;;1.07;;
6251;SDS011;3159;52.414;9.784;2022-08-01T12:47:20;2.07;;;1.00;;
6251;SDS011;3159;52.414;9.784;2022-08-01T12:49:47;2.77;;;1.10;;
6251;SDS011;3159;52.414;9.784;2022-08-01T12:52:15;2.47;;;1.10;;
6251;SDS011;3159;52.414;9.784;2022-08-01T12:54:59;2.57;;;1.17;;
6251;SDS011;3159;52.414;9.784;2022-08-01T12:57:31;2.50;;;1.00;;
6251;SDS011;3159;52.414;9.784;2022-08-01T13:00:04;2.20;;;1.17;;
6251;SDS011;3159;52.414;9.784;2022-08-01T13:02:38;2.43;;;1.40;;
6251;SDS011;3159;52.414;9.784;2022-08-01T13:05:05;2.47;;;1.27;;
6251;SDS011;3159;52.414;9.784;2022-08-01T13:07:35;3.50;;;1.40;;
6251;SDS011;3159;52.414;9.784;2022-08-01T13:10:03;4.13;;;1.40;;
6251;SDS011;3159;52.414;9.784;2022-08-01T13:12:30;3.47;;;1.43;;
6251;SDS011;3159;52.414;9.784;2022-08-01T13:14:57;1.73;;;1.10;;
6251;SDS011;3159;52.414;9.784;2022-08-01T13:17:31;2.40;;;1.53;;
6251;SDS011;3159;52.414;9.784;2022-08-01T13:19:59;2.83;;;1.17;;
6251;SDS011;3159;52.414;9.784;2022-08-01T13:22:31;2.80;;;1.10;;
6251;SDS011;3159;52.414;9.784;2022-08-01T13:25:08;3.57;;;1.13;;
6251;SDS011;3159;52.414;9.784;2022-08-01T13:27:36;2.67;;;2.00;;
6251;SDS011;3159;52.414;9.784;2022-08-01T13:30:12;2.40;;;0.90;;
6251;SDS011;3159;52.414;9.784;2022-08-01T13:32:40;1.70;;;1.00;;
6251;SDS011;3159;52.414;9.784;2022-08-01T13:35:10;2.73;;;1.37;;
6251;SDS011;3159;52.414;9.784;2022-08-01T13:37:39;2.90;;;1.10;;
6251;SDS011;3159;52.414;9.784;2022-08-01T13:40:08;1.77;;;1.17;;
6251;SDS011;3159;52.414;9.784;2022-08-01T13:42:36;1.43;;;1.03;;
6251;SDS011;3159;52.414;9.784;2022-08-01T13:45:04;5.17;;;1.70;;
6251;SDS011;3159;52.414;9.784;2022-08-01T13:47:35;4.57;;;1.40;;
6251;SDS011;3159;52.414;9.784;2022-08-01T13:50:03;2.33;;;1.40;;
6251;SDS011;3159;52.414;9.784;2022-08-01T13:52:31;6.53;;;1.73;;
6251;SDS011;3159;52.414;9.784;2022-08-01T13:54:58;4.07;;;1.37;;
6251;SDS011;3159;52.414;9.784;2022-08-01T13:57:26;6.00;;;1.50;;
6251;SDS011;3159;52.414;9.784;2022-08-01T13:59:54;4.93;;;1.50;;
6251;SDS011;3159;52.414;9.784;2022-08-01T14:02:23;2.07;;;1.30;;
6251;SDS011;3159;52.414;9.784;2022-08-01T14:04:49;2.67;;;1.27;;
6251;SDS011;3159;52.414;9.784;2022-08-01T14:07:16;2.90;;;1.67;;
6251;SDS011;3159;52.414;9.784;2022-08-01T14:09:45;3.23;;;1.50;;
6251;SDS011;3159;52.414;9.784;2022-08-01T14:12:11;3.57;;;1.37;;
6251;SDS011;3159;52.414;9.784;2022-08-01T14:14:38;3.90;;;1.40;;
6251;SDS011;3159;52.414;9.784;2022-08-01T14:17:05;2.70;;;1.20;;
6251;SDS011;3159;52.414;9.784;2022-08-01T14:19:32;3.47;;;1.10;;
6251;SDS011;3159;52.414;9.784;2022-08-01T14:21:59;1.20;;;1.10;;
6251;SDS011;3159;52.414;9.784;2022-08-01T14:24:26;6.37;;;1.67;;
6251;SDS011;3159;52.414;9.784;2022-08-01T14:26:54;2.67;;;1.30;;
6251;SDS011;3159;52.414;9.784;2022-08-01T14:29:21;1.50;;;1.00;;
6251;SDS011;3159;52.414;9.784;2022-08-01T14:31:48;1.60;;;1.17;;
6251;SDS011;3159;52.414;9.784;2022-08-01T14:34:14;3.03;;;1.00;;
6251;SDS011;3159;52.414;9.784;2022-08-01T14:36:41;3.83;;;0.93;;
6251;SDS011;3159;52.414;9.784;2022-08-01T14:39:08;3.50;;;1.30;;
6251;SDS011;3159;52.414;9.784;2022-08-01T14:41:35;1.67;;;1.10;;
6251;SDS011;3159;52.414;9.784;2022-08-01T14:44:04;3.80;;;1.27;;
6251;SDS011;3159;52.414;9.784;2022-08-01T14:46:31;1.70;;;1.00;;
6251;SDS011;3159;52.414;9.784;2022-08-01T14:48:58;3.10;;;1.13;;
6251;SDS011;3159;52.414;9.784;2022-08-01T14:51:25;1.83;;;0.80;;
6251;SDS011;3159;52.414;9.784;2022-08-01T14:53:51;3.33;;;1.00;;
6251;SDS011;3159;52.414;9.784;2022-08-01T14:56:19;4.80;;;1.10;;
6251;SDS011;3159;52.414;9.784;2022-08-01T14:58:46;2.50;;;1.50;;
6251;SDS011;3159;52.414;9.784;2022-08-01T15:01:14;3.37;;;1.10;;
6251;SDS011;3159;52.414;9.784;2022-08-01T15:03:41;2.30;;;0.87;;
6251;SDS011;3159;52.414;9.784;2022-08-01T15:06:08;3.00;;;1.27;;
6251;SDS011;3159;52.414;9.784;2022-08-01T15:08:36;4.70;;;0.93;;
6251;SDS011;3159;52.414;9.784;2022-08-01T15:11:03;2.63;;;1.17;;
6251;SDS011;3159;52.414;9.784;2022-08-01T15:13:30;3.93;;;1.00;;
6251;SDS011;3159;52.414;9.784;2022-08-01T15:15:57;3.07;;;0.83;;
6251;SDS011;3159;52.414;9.784;2022-08-01T15:18:26;1.60;;;1.07;;
6251;SDS011;3159;52.414;9.784;2022-08-01T15:20:53;5.63;;;1.57;;
6251;SDS011;3159;52.414;9.784;2022-08-01T15:23:20;2.60;;;1.17;;
6251;SDS011;3159;52.414;9.784;2022-08-01T15:25:47;3.30;;;1.37;;
6251;SDS011;3159;52.414;9.784;2022-08-01T15:28:14;3.30;;;1.20;;
6251;SDS011;3159;52.414;9.784;2022-08-01T15:30:41;2.90;;;1.10;;
6251;SDS011;3159;52.414;9.784;2022-08-01T15:33:08;2.87;;;1.00;;